createdAt,value
2018-04-19T00:01:26.540Z,15.90
2018-04-19T00:03:52.382Z,15.47
2018-04-19T00:06:18.249Z,15.43
2018-04-19T00:08:44.102Z,14.60
2018-04-19T00:11:09.927Z,14.97
2018-04-19T00:13:35.777Z,14.70
2018-04-19T00:16:01.613Z,16.33
2018-04-19T00:18:27.490Z,15.63
2018-04-19T00:20:53.330Z,15.23
2018-04-19T00:23:19.180Z,14.93
2018-04-19T00:25:45.013Z,14.57
2018-04-19T00:28:10.861Z,14.87
2018-04-19T00:30:36.688Z,15.43
2018-04-19T00:33:02.525Z,16.23
2018-04-19T00:35:28.358Z,14.17
2018-04-19T00:37:54.201Z,14.97
2018-04-19T00:40:20.044Z,13.87
2018-04-19T00:42:45.916Z,13.93
2018-04-19T00:45:11.771Z,17.07
2018-04-19T00:47:37.592Z,15.23
2018-04-19T00:50:03.441Z,13.97
2018-04-19T00:52:37.382Z,13.67
2018-04-19T00:55:03.271Z,15.63
2018-04-19T00:57:29.115Z,14.63
2018-04-19T00:59:54.996Z,14.50
2018-04-19T01:02:20.851Z,14.13
2018-04-19T01:04:46.689Z,13.77
2018-04-19T01:07:12.530Z,14.53
2018-04-19T01:09:38.369Z,14.20
2018-04-19T01:12:04.240Z,14.13
2018-04-19T01:14:30.118Z,13.13
2018-04-19T01:16:56.759Z,14.20
2018-04-19T01:19:22.596Z,13.23
2018-04-19T01:21:48.466Z,13.93
2018-04-19T01:24:14.328Z,14.17
2018-04-19T01:26:40.196Z,13.17
2018-04-19T01:29:06.060Z,14.57
2018-04-19T01:31:32.016Z,13.30
2018-04-19T01:33:57.851Z,14.87
2018-04-19T01:36:24.726Z,14.30
2018-04-19T01:38:50.613Z,15.60
2018-04-19T01:41:16.463Z,15.03
2018-04-19T01:43:42.353Z,14.17
2018-04-19T01:46:08.174Z,14.73
2018-04-19T01:48:34.012Z,14.87
2018-04-19T01:50:59.887Z,13.90
2018-04-19T01:53:25.719Z,14.97
2018-04-19T01:55:51.567Z,15.90
2018-04-19T01:58:17.406Z,13.47
2018-04-19T02:00:43.248Z,18.90
2018-04-19T02:03:09.900Z,14.67
2018-04-19T02:05:35.748Z,18.03
2018-04-19T02:08:01.573Z,16.07
2018-04-19T02:10:27.449Z,17.27
2018-04-19T02:12:53.286Z,17.80
2018-04-19T02:15:19.128Z,16.90
2018-04-19T02:17:44.970Z,16.37
2018-04-19T02:20:10.803Z,16.57
2018-04-19T02:22:36.655Z,16.90
2018-04-19T02:25:02.521Z,14.70
2018-04-19T02:27:28.376Z,15.13
2018-04-19T02:29:54.262Z,15.03
2018-04-19T02:32:20.123Z,14.87
2018-04-19T02:34:46.763Z,14.83
2018-04-19T02:37:12.640Z,15.07
2018-04-19T02:39:38.501Z,15.27
2018-04-19T02:42:04.368Z,14.77
2018-04-19T02:44:30.228Z,15.63
2018-04-19T02:46:56.079Z,15.93
2018-04-19T02:49:21.930Z,15.13
2018-04-19T02:51:47.775Z,16.77
2018-04-19T02:54:13.645Z,17.37
2018-04-19T02:56:39.484Z,17.60
2018-04-19T02:59:05.356Z,17.30
2018-04-19T03:01:31.203Z,19.10
2018-04-19T03:03:57.069Z,19.77
2018-04-19T03:06:22.948Z,17.83
2018-04-19T03:08:48.825Z,18.87
2018-04-19T03:11:14.730Z,18.60
2018-04-19T03:13:40.585Z,18.03
2018-04-19T03:16:06.431Z,16.87
2018-04-19T03:18:32.282Z,16.40
2018-04-19T03:20:58.172Z,16.70
2018-04-19T03:23:24.023Z,16.17
2018-04-19T03:25:49.877Z,15.60
2018-04-19T03:28:15.723Z,16.00
2018-04-19T03:30:41.629Z,16.00
2018-04-19T03:33:07.517Z,15.37
2018-04-19T03:35:33.424Z,15.47
2018-04-19T03:37:59.278Z,15.10
2018-04-19T03:40:25.131Z,15.77
2018-04-19T03:42:50.992Z,14.63
2018-04-19T03:45:16.834Z,15.77
2018-04-19T03:47:42.679Z,16.50
2018-04-19T03:50:08.515Z,15.47
2018-04-19T03:52:34.388Z,16.40
2018-04-19T03:55:00.243Z,17.10
2018-04-19T03:57:26.160Z,18.07
2018-04-19T03:59:51.994Z,17.07
2018-04-19T04:02:17.823Z,17.70
2018-04-19T04:04:43.688Z,17.87
2018-04-19T04:07:09.526Z,18.40
2018-04-19T04:09:35.379Z,17.37
2018-04-19T04:12:01.222Z,17.23
2018-04-19T04:14:27.105Z,18.40
2018-04-19T04:17:05.326Z,17.70
2018-04-19T04:19:43.435Z,18.57
2018-04-19T04:22:21.647Z,17.07
2018-04-19T04:24:47.481Z,19.77
2018-04-19T04:27:13.336Z,20.53
2018-04-19T04:29:39.208Z,17.93
2018-04-19T04:32:05.047Z,18.00
2018-04-19T04:34:30.889Z,16.77
2018-04-19T04:36:56.744Z,15.03
2018-04-19T04:39:22.587Z,23.07
2018-04-19T04:41:48.422Z,17.83
2018-04-19T04:44:14.272Z,21.13
2018-04-19T04:46:40.130Z,18.33
2018-04-19T04:49:05.959Z,22.03
2018-04-19T04:51:31.824Z,19.80
2018-04-19T04:53:57.686Z,18.53
2018-04-19T04:56:23.542Z,19.63
2018-04-19T04:58:49.384Z,20.50
2018-04-19T05:01:15.257Z,17.77
2018-04-19T05:03:41.104Z,19.87
2018-04-19T05:06:06.951Z,20.27
2018-04-19T05:08:32.817Z,21.87
2018-04-19T05:10:58.668Z,19.80
2018-04-19T05:13:24.527Z,25.43
2018-04-19T05:15:50.381Z,22.20
2018-04-19T05:18:16.246Z,23.83
2018-04-19T05:20:42.095Z,22.50
2018-04-19T05:23:07.996Z,23.47
2018-04-19T05:25:33.822Z,23.53
2018-04-19T05:27:59.684Z,21.30
2018-04-19T05:30:25.571Z,22.23
2018-04-19T05:32:51.424Z,22.97
2018-04-19T05:35:17.264Z,22.33
2018-04-19T05:37:43.133Z,22.60
2018-04-19T05:40:09.011Z,25.83
2018-04-19T05:42:34.847Z,23.50
2018-04-19T05:45:00.693Z,22.43
2018-04-19T05:47:26.533Z,23.23
2018-04-19T05:49:52.383Z,23.53
2018-04-19T05:52:18.241Z,24.00
2018-04-19T05:54:44.096Z,25.07
2018-04-19T05:57:09.951Z,25.47
2018-04-19T05:59:35.805Z,22.77
2018-04-19T06:02:01.694Z,24.70
2018-04-19T06:04:27.535Z,26.23
2018-04-19T06:06:53.408Z,26.77
2018-04-19T06:09:19.276Z,26.33
2018-04-19T06:11:45.126Z,28.30
2018-04-19T06:14:10.995Z,26.27
2018-04-19T06:16:36.949Z,25.37
2018-04-19T06:19:02.787Z,27.27
2018-04-19T06:21:28.623Z,28.20
2018-04-19T06:23:54.488Z,28.63
2018-04-19T06:26:20.339Z,27.53
2018-04-19T06:28:46.207Z,31.47
2018-04-19T06:31:12.042Z,28.57
2018-04-19T06:33:37.900Z,30.87
2018-04-19T06:36:03.795Z,31.57
2018-04-19T06:38:29.624Z,27.57
2018-04-19T06:40:55.547Z,27.17
2018-04-19T06:43:21.419Z,28.90
2018-04-19T06:45:47.262Z,27.60
2018-04-19T06:48:13.091Z,28.63
2018-04-19T06:50:39.175Z,28.83
2018-04-19T06:53:05.026Z,28.47
2018-04-19T06:55:30.920Z,31.30
2018-04-19T06:57:56.772Z,27.97
2018-04-19T07:00:22.628Z,29.90
2018-04-19T07:02:48.486Z,30.33
2018-04-19T07:05:14.319Z,26.90
2018-04-19T07:07:40.160Z,28.63
2018-04-19T07:10:05.990Z,30.43
2018-04-19T07:12:31.866Z,28.47
2018-04-19T07:14:57.725Z,29.20
2018-04-19T07:17:24.244Z,28.73
2018-04-19T07:19:50.082Z,26.27
2018-04-19T07:22:15.923Z,27.87
2018-04-19T07:24:41.769Z,27.07
2018-04-19T07:27:07.643Z,30.23
2018-04-19T07:29:33.491Z,27.07
2018-04-19T07:31:59.323Z,27.50
2018-04-19T07:34:25.182Z,29.03
2018-04-19T07:36:51.032Z,26.13
2018-04-19T07:39:16.905Z,26.40
2018-04-19T07:41:42.744Z,26.10
2018-04-19T07:44:08.614Z,24.73
2018-04-19T07:46:34.552Z,25.97
2018-04-19T07:49:00.429Z,25.10
2018-04-19T07:51:26.287Z,23.20
2018-04-19T07:53:52.118Z,24.07
2018-04-19T07:56:17.967Z,26.20
2018-04-19T07:58:43.822Z,26.03
2018-04-19T08:01:09.726Z,23.43
2018-04-19T08:03:35.583Z,30.40
2018-04-19T08:06:01.441Z,23.23
2018-04-19T08:08:27.289Z,23.30
2018-04-19T08:10:53.164Z,25.67
2018-04-19T08:13:19.069Z,24.47
2018-04-19T08:15:44.895Z,24.87
2018-04-19T08:18:10.748Z,25.57
2018-04-19T08:20:36.612Z,26.93
2018-04-19T08:23:02.461Z,26.90
2018-04-19T08:25:28.316Z,30.00
2018-04-19T08:27:54.190Z,27.00
2018-04-19T08:30:20.034Z,23.67
2018-04-19T08:32:45.908Z,25.03
2018-04-19T08:35:11.813Z,20.97
2018-04-19T08:37:37.651Z,22.37
2018-04-19T08:40:03.512Z,24.50
2018-04-19T08:42:29.350Z,29.33
2018-04-19T08:44:55.212Z,24.40
2018-04-19T08:47:21.075Z,25.60
2018-04-19T08:49:46.927Z,21.87
2018-04-19T08:52:12.799Z,25.93
2018-04-19T08:54:38.646Z,29.40
2018-04-19T08:57:04.479Z,26.20
2018-04-19T08:59:30.358Z,26.03
2018-04-19T09:01:56.196Z,19.47
2018-04-19T09:04:22.036Z,20.77
2018-04-19T09:06:47.881Z,21.20
2018-04-19T09:09:13.757Z,20.23
2018-04-19T09:11:39.628Z,23.10
2018-04-19T09:14:05.464Z,19.67
2018-04-19T09:16:31.323Z,21.33
2018-04-19T09:18:57.172Z,21.63
2018-04-19T09:21:23.045Z,18.33
2018-04-19T09:23:48.883Z,20.37
2018-04-19T09:26:14.727Z,17.93
2018-04-19T09:28:40.605Z,21.80
2018-04-19T09:31:06.449Z,17.03
2018-04-19T09:33:32.297Z,17.33
2018-04-19T09:35:58.149Z,16.83
2018-04-19T09:38:24.031Z,19.97
2018-04-19T09:40:49.885Z,17.53
2018-04-19T09:43:15.730Z,16.87
2018-04-19T09:45:41.578Z,16.53
2018-04-19T09:48:07.440Z,13.67
2018-04-19T09:50:33.286Z,20.67
2018-04-19T09:52:59.159Z,16.87
2018-04-19T09:55:25.022Z,16.10
2018-04-19T09:58:03.224Z,16.67
2018-04-19T10:00:29.114Z,15.20
2018-04-19T10:02:58.008Z,15.50
2018-04-19T10:05:23.889Z,14.57
2018-04-19T10:07:49.748Z,17.90
2018-04-19T10:10:15.594Z,13.17
2018-04-19T10:12:41.449Z,12.37
2018-04-19T10:15:08.119Z,14.63
2018-04-19T10:17:33.953Z,12.77
2018-04-19T10:19:59.798Z,12.90
2018-04-19T10:22:25.649Z,13.07
2018-04-19T10:24:51.486Z,11.83
2018-04-19T10:27:17.338Z,11.07
2018-04-19T10:29:43.200Z,9.97
2018-04-19T10:35:02.081Z,12.80
2018-04-19T10:37:27.958Z,12.60
2018-04-19T10:39:53.815Z,9.03
2018-04-19T10:42:19.694Z,11.13
2018-04-19T10:44:45.536Z,8.87
2018-04-19T10:47:11.428Z,12.00
2018-04-19T10:49:37.284Z,9.83
2018-04-19T10:52:03.100Z,11.83
2018-04-19T10:54:28.975Z,9.57
2018-04-19T10:56:54.822Z,10.60
2018-04-19T10:59:20.679Z,9.67
2018-04-19T11:01:46.515Z,10.57
2018-04-19T11:04:12.382Z,11.03
2018-04-19T11:06:38.243Z,8.50
2018-04-19T11:09:04.144Z,8.93
2018-04-19T11:11:29.998Z,7.17
2018-04-19T11:13:55.867Z,7.60
2018-04-19T11:16:21.697Z,5.37
2018-04-19T11:18:47.576Z,11.73
2018-04-19T11:21:13.411Z,10.77
2018-04-19T11:23:39.253Z,7.45
2018-04-19T11:26:05.112Z,9.95
2018-04-19T11:28:30.963Z,8.15
2018-04-19T11:30:56.882Z,6.28
2018-04-19T11:33:22.728Z,8.65
2018-04-19T11:35:48.582Z,7.37
2018-04-19T11:38:14.421Z,6.87
2018-04-19T11:40:40.287Z,5.03
2018-04-19T11:43:06.125Z,5.40
2018-04-19T11:45:32.011Z,5.75
2018-04-19T11:47:57.954Z,4.40
2018-04-19T11:50:23.756Z,9.50
2018-04-19T11:52:49.631Z,14.68
2018-04-19T11:55:15.475Z,18.50
2018-04-19T11:57:41.318Z,9.95
2018-04-19T12:00:07.163Z,11.70
2018-04-19T12:02:33.026Z,12.75
2018-04-19T12:04:58.866Z,13.02
2018-04-19T12:07:24.759Z,12.82
2018-04-19T12:09:50.623Z,11.73
2018-04-19T12:12:16.510Z,13.02
2018-04-19T12:14:42.366Z,14.43
2018-04-19T12:17:08.199Z,13.55
2018-04-19T12:19:34.063Z,11.43
2018-04-19T12:21:59.931Z,14.57
2018-04-19T12:24:25.781Z,10.57
2018-04-19T12:26:51.654Z,12.55
2018-04-19T12:29:17.537Z,13.65
2018-04-19T12:31:44.332Z,10.77
2018-04-19T12:34:10.201Z,9.55
2018-04-19T12:36:36.043Z,11.55
2018-04-19T12:39:01.909Z,10.55
2018-04-19T12:41:27.761Z,14.00
2018-04-19T12:43:53.631Z,12.23
2018-04-19T12:46:21.097Z,8.88
2018-04-19T12:48:46.943Z,8.95
2018-04-19T12:51:12.799Z,11.43
2018-04-19T12:53:38.652Z,10.30
2018-04-19T12:56:04.507Z,14.82
2018-04-19T12:58:30.363Z,8.90
2018-04-19T13:00:56.248Z,9.95
2018-04-19T13:03:22.124Z,11.60
2018-04-19T13:05:47.967Z,8.82
2018-04-19T13:08:13.843Z,7.72
2018-04-19T13:10:39.686Z,10.65
2018-04-19T13:13:05.528Z,11.12
2018-04-19T13:15:31.382Z,11.90
2018-04-19T13:17:57.264Z,14.15
2018-04-19T13:20:23.115Z,9.45
2018-04-19T13:22:48.974Z,8.95
2018-04-19T13:25:14.836Z,6.65
2018-04-19T13:27:40.727Z,6.93
2018-04-19T13:30:06.606Z,6.82
2018-04-19T13:32:32.437Z,8.35
2018-04-19T13:34:58.291Z,9.25
2018-04-19T13:37:24.127Z,8.63
2018-04-19T13:39:50.043Z,9.55
2018-04-19T13:42:15.844Z,10.65
2018-04-19T13:44:41.696Z,13.82
2018-04-19T13:47:07.530Z,12.23
2018-04-19T13:49:33.373Z,10.90
2018-04-19T13:51:59.215Z,12.13
2018-04-19T13:54:25.047Z,10.93
2018-04-19T13:56:50.935Z,9.02
2018-04-19T13:59:16.759Z,10.90
2018-04-19T14:01:42.598Z,12.55
2018-04-19T14:04:08.450Z,11.60
2018-04-19T14:06:34.339Z,13.35
2018-04-19T14:09:00.191Z,12.05
2018-04-19T14:11:26.058Z,11.48
2018-04-19T14:13:51.899Z,11.60
2018-04-19T14:16:17.759Z,12.30
2018-04-19T14:18:43.602Z,8.18
2018-04-19T14:21:10.238Z,10.02
2018-04-19T14:23:36.088Z,12.77
2018-04-19T14:26:01.964Z,9.00
2018-04-19T14:28:27.807Z,10.07
2018-04-19T14:30:53.663Z,12.57
2018-04-19T14:33:19.554Z,10.23
2018-04-19T14:35:45.404Z,12.32
2018-04-19T14:38:11.260Z,10.70
2018-04-19T14:40:37.115Z,10.52
2018-04-19T14:43:02.959Z,10.10
2018-04-19T14:45:28.831Z,10.82
2018-04-19T14:47:54.681Z,13.10
2018-04-19T14:50:20.557Z,12.95
2018-04-19T14:52:46.381Z,11.05
2018-04-19T14:55:12.234Z,13.32
2018-04-19T14:57:38.074Z,13.00
2018-04-19T15:00:03.919Z,12.20
2018-04-19T15:02:29.769Z,11.25
2018-04-19T15:04:57.199Z,14.68
2018-04-19T15:07:23.109Z,10.38
2018-04-19T15:09:49.006Z,11.25
2018-04-19T15:12:14.857Z,9.85
2018-04-19T15:14:40.710Z,9.48
2018-04-19T15:17:06.578Z,11.82
2018-04-19T15:19:32.419Z,11.27
2018-04-19T15:21:58.280Z,8.07
2018-04-19T15:24:24.134Z,8.38
2018-04-19T15:26:49.979Z,10.77
2018-04-19T15:29:15.846Z,9.50
2018-04-19T15:31:41.760Z,9.63
2018-04-19T15:34:07.617Z,9.65
2018-04-19T15:36:33.479Z,13.18
2018-04-19T15:38:59.343Z,10.85
2018-04-19T15:41:25.185Z,12.27
2018-04-19T15:43:51.086Z,11.93
2018-04-19T15:46:16.944Z,17.62
2018-04-19T15:48:42.808Z,13.13
2018-04-19T15:51:08.690Z,16.08
2018-04-19T15:53:34.529Z,14.77
2018-04-19T15:56:00.385Z,13.05
2018-04-19T15:58:26.242Z,12.13
2018-04-19T16:00:52.097Z,12.40
2018-04-19T16:03:17.926Z,18.73
2018-04-19T16:05:43.781Z,16.48
2018-04-19T16:08:09.667Z,15.65
2018-04-19T16:10:35.554Z,13.05
2018-04-19T16:13:01.435Z,18.17
2018-04-19T16:15:27.277Z,19.58
2018-04-19T16:20:48.103Z,14.82
2018-04-19T16:23:13.961Z,14.70
2018-04-19T16:25:39.808Z,12.50
2018-04-19T16:28:05.666Z,13.10
2018-04-19T16:30:31.510Z,13.75
2018-04-19T16:32:57.385Z,13.52
2018-04-19T16:35:23.244Z,13.27
2018-04-19T16:37:49.114Z,10.90
2018-04-19T16:40:14.987Z,9.40
2018-04-19T16:42:40.851Z,12.30
2018-04-19T16:45:06.726Z,11.52
2018-04-19T16:47:32.592Z,10.32
2018-04-19T16:49:58.449Z,8.25
2018-04-19T16:52:24.299Z,10.27
2018-04-19T16:54:50.165Z,9.93
2018-04-19T16:57:16.050Z,12.27
2018-04-19T16:59:41.890Z,11.38
2018-04-19T17:02:07.762Z,9.38
2018-04-19T17:04:33.619Z,11.05
2018-04-19T17:06:59.512Z,11.77
2018-04-19T17:09:25.386Z,9.30
2018-04-19T17:11:51.276Z,12.05
2018-04-19T17:14:17.141Z,13.50
2018-04-19T17:16:42.975Z,11.55
2018-04-19T17:19:08.847Z,12.23
2018-04-19T17:21:34.694Z,12.93
2018-04-19T17:24:00.574Z,8.02
2018-04-19T17:26:26.435Z,11.85
2018-04-19T17:28:52.344Z,9.13
2018-04-19T17:31:18.212Z,8.02
2018-04-19T17:33:44.096Z,11.15
2018-04-19T17:36:09.940Z,7.70
2018-04-19T17:38:35.789Z,9.35
2018-04-19T17:41:01.679Z,10.00
2018-04-19T17:43:27.547Z,8.27
2018-04-19T17:45:53.435Z,8.23
2018-04-19T17:48:19.320Z,10.30
2018-04-19T17:50:45.180Z,9.10
2018-04-19T17:53:11.168Z,9.10
2018-04-19T17:55:37.060Z,11.37
2018-04-19T17:58:02.920Z,14.40
2018-04-19T18:00:28.787Z,10.10
2018-04-19T18:02:54.634Z,10.27
2018-04-19T18:05:20.783Z,9.83
2018-04-19T18:07:46.643Z,9.47
2018-04-19T18:10:12.509Z,12.27
2018-04-19T18:12:38.438Z,9.27
2018-04-19T18:15:04.328Z,13.53
2018-04-19T18:17:30.230Z,7.80
2018-04-19T18:19:56.149Z,7.73
2018-04-19T18:22:22.046Z,7.43
2018-04-19T18:24:48.444Z,8.93
2018-04-19T18:27:14.389Z,7.37
2018-04-19T18:29:40.266Z,8.77
2018-04-19T18:32:06.177Z,8.73
2018-04-19T18:34:32.082Z,7.43
2018-04-19T18:36:58.004Z,7.37
2018-04-19T18:39:24.288Z,7.90
2018-04-19T18:41:50.208Z,8.07
2018-04-19T18:44:16.117Z,8.13
2018-04-19T18:46:42.099Z,10.10
2018-04-19T18:49:08.022Z,9.63
2018-04-19T18:51:34.484Z,7.97
2018-04-19T18:54:00.383Z,10.17
2018-04-19T18:56:27.232Z,8.43
2018-04-19T18:58:53.204Z,8.13
2018-04-19T19:01:19.086Z,9.40
2018-04-19T19:03:45.027Z,8.60
2018-04-19T19:06:10.951Z,10.90
2018-04-19T19:08:36.883Z,11.70
2018-04-19T19:11:02.812Z,8.90
2018-04-19T19:13:28.786Z,11.67
2018-04-19T19:16:09.647Z,9.63
2018-04-19T19:18:47.848Z,8.93
2018-04-19T19:21:14.594Z,8.53
2018-04-19T19:23:40.508Z,10.00
2018-04-19T19:26:06.411Z,8.77
2018-04-19T19:28:32.299Z,8.27
2018-04-19T19:30:58.182Z,9.47
2018-04-19T19:33:24.029Z,8.20
2018-04-19T19:35:49.931Z,9.47
2018-04-19T19:38:15.816Z,8.63
2018-04-19T19:40:41.672Z,9.17
2018-04-19T19:43:07.600Z,8.73
2018-04-19T19:45:33.543Z,8.70
2018-04-19T19:47:59.486Z,9.10
2018-04-19T19:50:25.412Z,9.70
2018-04-19T19:52:51.318Z,8.63
2018-04-19T19:55:17.264Z,8.20
2018-04-19T19:57:43.213Z,9.13
2018-04-19T20:00:09.183Z,9.53
2018-04-19T20:02:35.052Z,9.23
2018-04-19T20:05:00.952Z,9.53
2018-04-19T20:07:26.862Z,9.73
2018-04-19T20:09:52.796Z,9.90
2018-04-19T20:12:18.674Z,11.03
2018-04-19T20:14:44.519Z,9.87
2018-04-19T20:17:10.373Z,10.17
2018-04-19T20:19:36.284Z,11.13
2018-04-19T20:22:02.198Z,9.03
2018-04-19T20:24:28.049Z,10.87
2018-04-19T20:26:53.946Z,9.77
2018-04-19T20:29:19.845Z,9.50
2018-04-19T20:31:45.731Z,9.53
2018-04-19T20:34:11.660Z,9.50
2018-04-19T20:36:37.612Z,9.60
2018-04-19T20:39:03.569Z,9.37
2018-04-19T20:41:29.429Z,8.63
2018-04-19T20:43:55.381Z,9.67
2018-04-19T20:46:21.261Z,9.27
2018-04-19T20:48:47.193Z,10.27
2018-04-19T20:51:13.057Z,9.83
2018-04-19T20:53:38.938Z,10.43
2018-04-19T20:56:04.779Z,11.20
2018-04-19T20:58:30.672Z,11.20
2018-04-19T21:00:56.594Z,10.03
2018-04-19T21:03:22.461Z,11.23
2018-04-19T21:05:48.361Z,11.17
2018-04-19T21:08:14.221Z,12.70
2018-04-19T21:10:40.128Z,12.57
2018-04-19T21:13:06.019Z,12.00
2018-04-19T21:15:31.909Z,11.63
2018-04-19T21:17:57.754Z,13.83
2018-04-19T21:20:23.630Z,11.37
2018-04-19T21:22:49.491Z,12.07
2018-04-19T21:25:15.353Z,11.10
2018-04-19T21:27:41.210Z,12.10
2018-04-19T21:30:07.068Z,10.90
2018-04-19T21:32:32.953Z,11.87
2018-04-19T21:34:58.808Z,11.17
2018-04-19T21:37:24.680Z,11.17
2018-04-19T21:39:50.543Z,10.77
2018-04-19T21:42:16.417Z,11.67
2018-04-19T21:44:42.271Z,11.53
2018-04-19T21:47:08.139Z,11.10
2018-04-19T21:49:33.971Z,11.50
2018-04-19T21:51:59.829Z,11.10
2018-04-19T21:54:25.678Z,10.83
2018-04-19T21:56:51.522Z,11.57
2018-04-19T21:59:17.369Z,11.10
2018-04-19T22:01:43.265Z,10.93
2018-04-19T22:04:09.098Z,11.93
2018-04-19T22:06:34.929Z,10.90
2018-04-19T22:09:00.787Z,12.10
2018-04-19T22:11:26.636Z,12.17
2018-04-19T22:13:52.476Z,11.97
2018-04-19T22:16:18.318Z,11.70
2018-04-19T22:18:44.165Z,12.20
2018-04-19T22:21:10.008Z,11.27
2018-04-19T22:23:35.845Z,11.43
2018-04-19T22:26:01.698Z,12.93
2018-04-19T22:28:27.539Z,12.93
2018-04-19T22:30:53.424Z,13.00
2018-04-19T22:33:19.281Z,13.20
2018-04-19T22:35:45.147Z,13.33
2018-04-19T22:38:10.981Z,14.23
2018-04-19T22:40:36.836Z,14.10
2018-04-19T22:43:02.688Z,14.17
2018-04-19T22:45:28.543Z,13.93
2018-04-19T22:47:54.393Z,14.17
2018-04-19T22:50:20.245Z,15.10
2018-04-19T22:52:46.114Z,15.40
2018-04-19T22:55:11.955Z,15.43
2018-04-19T22:57:38.600Z,15.63
2018-04-19T23:00:04.446Z,14.70
2018-04-19T23:02:30.316Z,15.07
2018-04-19T23:04:56.151Z,16.07
2018-04-19T23:07:22.040Z,15.63
2018-04-19T23:09:47.884Z,14.60
2018-04-19T23:12:13.752Z,15.77
2018-04-19T23:14:39.597Z,15.30
2018-04-19T23:17:05.434Z,15.00
2018-04-19T23:19:31.282Z,13.97
2018-04-19T23:21:57.143Z,15.23
2018-04-19T23:24:22.970Z,14.50
2018-04-19T23:26:48.835Z,15.47
2018-04-19T23:29:14.694Z,14.27
2018-04-19T23:31:40.552Z,14.43
2018-04-19T23:34:06.425Z,15.23
2018-04-19T23:36:32.268Z,14.20
2018-04-19T23:38:58.139Z,15.83
2018-04-19T23:41:23.990Z,19.33
2018-04-19T23:43:49.844Z,17.43
2018-04-19T23:46:15.708Z,15.87
2018-04-19T23:48:41.568Z,18.43
2018-04-19T23:51:07.433Z,18.30
2018-04-19T23:53:33.264Z,18.20
2018-04-19T23:55:59.119Z,16.30
2018-04-19T23:58:24.956Z,15.03
